N0HEQ Weather Reports


Display with metric or nautical units.
time (UTC)temp
F
wind
direction
speed
MPH
gust
MPH
rain 1hr
in
rain 24hr
in
rain mn
in
humidity
%
barometer
mb
20220516225213 76 77 1.0 4.0 0.00 0.00 0.00 2 1024.6
20220516225006 76 90 1.0 3.0 0.00 0.00 0.00 2 837.0
20220516224604 74 137 3.0 10.0 0.00 0.00 0.00 26 1014.4
20220516224314 76 146 2.0 5.0 0.00 0.00 0.00 2 1024.6
20220516224007 75 106 2.0 5.0 0.00 0.00 0.00 2 837.0
20220516223414 75 199 0.0 4.0 0.00 0.00 0.00 2 1024.6
20220516223106 73 153 0.0 6.0 0.00 0.00 0.00 28 1014.8
20220516223007 74 270 0.0 2.0 0.00 0.00 0.00 2 838.0
20220516222514 74 43 0.0 3.0 0.00 0.00 0.00 2 1025.8
20220516222006 74 45 2.0 3.0 0.00 0.00 0.00 2 838.0
20220516221614 74 33 1.0 3.0 0.00 0.00 0.00 2 1025.8
20220516221557 74 0 4.0 8.0 0.00 0.00 0.00 26 1015.3
20220516221005 74 4 1.0 5.0 0.00 0.00 0.00 2 838.0
20220516220715 74 53 1.0 4.0 0.00 0.00 0.00 2 1025.8
20220516220110 75 215 4.0 9.0 0.00 0.00 0.00 24 1015.8
20220516220006 75 41 2.0 3.0 0.00 0.00 0.00 2 838.0
20220516215815 75 67 2.0 4.0 0.00 0.00 0.00 2 1025.8
20220516215007 76 52 2.0 7.0 0.00 0.00 0.00 2 838.0
20220516214914 76 116 2.0 7.0 0.00 0.00 0.00 2 1025.8
20220516214600 76 234 2.0 13.0 0.00 0.00 0.00 22 1015.4
20220516214013 77 106 1.0 7.0 0.00 0.00 0.00 2 1024.6
20220516213115 77 92 0.0 3.0 0.00 0.00 0.00 2 1024.6
20220516213055 76 201 1.0 9.0 0.00 0.00 0.00 22 1014.7
20220516213006 77 68 0.0 3.0 0.00 0.00 0.00 2 837.0
20220516212214 77 72 0.0 2.0 0.00 0.00 0.00 2 1024.6
20220516212010 78 22 0.0 2.0 0.00 0.00 0.00 2 837.0
20220516211556 76 311 1.0 4.0 0.00 0.00 0.00 22 1014.6
20220516211315 78 130 1.0 3.0 0.00 0.00 0.00 2 1023.4
20220516211006 78 121 1.0 3.0 0.00 0.00 0.00 2 836.0
20220516210414 78 128 1.0 9.0 0.00 0.00 0.00 2 1023.4
20220516210134 77 233 2.0 8.0 0.00 0.00 0.00 20 1014.5
20220516210005 78 158 3.0 8.0 0.00 0.00 0.00 2 836.0
20220516205514 79 129 2.0 9.0 0.00 0.00 0.00 2 1023.4
20220516205006 80 153 2.0 6.0 0.00 0.00 0.00 2 836.0
20220516204614 80 160 4.0 6.0 0.00 0.00 0.00 2 1023.4
20220516204553 79 269 2.0 6.0 0.00 0.00 0.00 18 1014.5
20220516204009 81 57 0.0 1.0 0.00 0.00 0.00 2 837.0
20220516203714 81 68 0.0 2.0 0.00 0.00 0.00 2 1024.6
20220516203053 79 0 1.0 4.0 0.00 0.00 0.00 17 1014.2
20220516203006 82 68 0.0 1.0 0.00 0.00 0.00 2 837.0
20220516202815 82 0 0.0 0.0 0.00 0.00 0.00 2 1024.6
20220516202006 83 45 0.0 0.0 0.00 0.00 0.00 2 837.0
20220516201914 83 0 0.0 0.0 0.00 0.00 0.00 2 1024.6
20220516201556 81 0 0.0 4.0 0.00 0.00 0.00 18 1014.3
20220516201014 85 0 0.0 0.0 0.00 0.00 0.00 2 1024.6
20220516201007 86 116 0.0 0.0 0.00 0.00 0.00 2 837.0
20220516200114 87 90 0.0 1.0 0.00 0.00 0.00 2 1024.6
20220516200056 82 350 2.0 5.0 0.00 0.00 0.00 17 1014.1
20220516200007 88 111 0.0 1.0 0.00 0.00 0.00 2 837.0
20220516195214 89 90 1.0 1.0 0.00 0.00 0.00 2 1024.6
20220516195007 89 159 0.0 0.0 0.00 0.00 0.00 2 837.0
20220516194551 81 11 1.0 3.0 0.00 0.00 0.00 20 1014.2
20220516194314 87 0 0.0 0.0 0.00 0.00 0.00 2 1023.4
20220516194007 86 270 0.0 0.0 0.00 0.00 0.00 2 836.0
20220516193414 85 0 0.0 0.0 0.00 0.00 0.00 2 1023.4
20220516193056 81 19 0.0 3.0 0.00 0.00 0.00 18 1014.5
20220516193009 85 201 0.0 0.0 0.00 0.00 0.00 2 837.0
20220516192514 85 0 0.0 0.0 0.00 0.00 0.00 2 1024.6
20220516192007 87 183 0.0 0.0 0.00 0.00 0.00 2 837.0
20220516191614 89 304 0.0 2.0 0.00 0.00 0.00 2 1024.6
20220516191553 82 30 1.0 3.0 0.00 0.00 0.00 19 1014.4
20220516191006 92 248 0.0 2.0 0.00 0.00 0.00 2 837.0
20220516190715 93 0 0.0 0.0 0.00 0.00 0.00 2 1024.6
20220516190104 82 0 0.0 7.0 0.00 0.00 0.00 19 1014.4
20220516190007 93 248 0.0 2.0 0.00 0.00 0.00 2 837.0
20220516185815 92 217 0.0 2.0 0.00 0.00 0.00 2 1024.6
20220516185006 90 205 0.0 2.0 0.00 0.00 0.00 2 837.0
20220516184914 90 218 0.0 2.0 0.00 0.00 0.00 2 1024.6
20220516184559 81 75 1.0 3.0 0.00 0.00 0.00 18 1014.7
20220516184014 90 0 0.0 0.0 0.00 0.00 0.00 2 1023.4
20220516184006 90 248 0.0 0.0 0.00 0.00 0.00 2 836.0
20220516183114 91 225 0.0 1.0 0.00 0.00 0.00 2 1023.4
20220516183049 81 51 1.0 4.0 0.00 0.00 0.00 22 1015.1
20220516183006 91 248 0.0 1.0 0.00 0.00 0.00 2 837.0
20220516182214 93 270 0.0 1.0 0.00 0.00 0.00 2 1024.6
20220516182007 92 251 0.0 1.0 0.00 0.00 0.00 2 837.0
20220516181550 80 75 0.0 4.0 0.00 0.00 0.00 23 1015.2
20220516181314 91 270 0.0 1.0 0.00 0.00 0.00 2 1024.6
20220516181007 91 0 0.0 0.0 0.00 0.00 0.00 2 837.0
20220516180414 90 0 0.0 0.0 0.00 0.00 0.00 2 1024.6
20220516180058 78 360 0.0 4.0 0.00 0.00 0.00 27 1015.6
20220516180008 89 248 0.0 0.0 0.00 0.00 0.00 2 837.0
20220516175514 89 0 0.0 0.0 0.00 0.00 0.00 2 1024.6
20220516175007 88 260 0.0 0.0 0.00 0.00 0.00 2 837.0
20220516174614 87 0 0.0 0.0 0.00 0.00 0.00 2 1024.6
20220516174553 76 0 0.0 3.0 0.00 0.00 0.00 29 1016.0
20220516174006 83 113 0.0 0.0 0.00 0.00 0.00 2 838.0
20220516173715 82 0 0.0 0.0 0.00 0.00 0.00 2 1025.8
20220516173047 76 349 0.0 2.0 0.00 0.00 0.00 28 1016.3
20220516173007 82 90 0.0 0.0 0.00 0.00 0.00 2 838.0
20220516172815 82 0 0.0 0.0 0.00 0.00 0.00 2 1025.8
20220516172007 83 90 0.0 0.0 0.00 0.00 0.00 2 838.0
20220516171914 83 0 0.0 0.0 0.00 0.00 0.00 2 1025.8
20220516171547 75 0 0.0 2.0 0.00 0.00 0.00 29 1016.4
20220516171014 84 0 0.0 0.0 0.00 0.00 0.00 2 1025.8
20220516171007 84 90 0.0 0.0 0.00 0.00 0.00 2 838.0
20220516170133 74 350 1.0 4.0 0.00 0.00 0.00 28 1016.6
20220516170114 84 0 0.0 0.0 0.00 0.00 0.00 2 1025.8
20220516170008 84 90 0.0 0.0 0.00 0.00 0.00 2 838.0
20220516165214 81 0 0.0 0.0 0.00 0.00 0.00 2 1025.8
20220516165007 80 90 0.0 0.0 0.00 0.00 0.00 2 838.0
20220516164559 72 0 0.0 2.0 0.00 0.00 0.00 31 1016.8
20220516164315 80 0 0.0 0.0 0.00 0.00 0.00 2 1025.8
20220516164008 80 90 0.0 0.0 0.00 0.00 0.00 2 838.0
20220516163414 81 0 0.0 0.0 0.00 0.00 0.00 2 1025.8
20220516163056 71 0 1.0 4.0 0.00 0.00 0.00 33 1017.1
20220516163007 81 90 0.0 0.0 0.00 0.00 0.00 2 839.0
20220516162514 79 0 0.0 0.0 0.00 0.00 0.00 12 1027.0
20220516162006 80 90 0.0 0.0 0.00 0.00 0.00 20 839.0
20220516161614 79 0 0.0 0.0 0.00 0.00 0.00 20 1027.0
20220516161603 70 233 0.0 2.0 0.00 0.00 0.00 37 1017.4
20220516161007 78 90 0.0 0.0 0.00 0.00 0.00 24 839.0
20220516160714 77 0 0.0 0.0 0.00 0.00 0.00 24 1027.0
20220516160105 67 223 0.0 2.0 0.00 0.00 0.00 38 1017.7
20220516160007 76 90 0.0 0.0 0.00 0.00 0.00 27 838.0
20220516155814 76 0 0.0 0.0 0.00 0.00 0.00 28 1025.8
20220516155008 72 90 0.0 0.0 0.00 0.00 0.00 32 838.0
20220516154914 73 0 0.0 0.0 0.00 0.00 0.00 32 1025.8
20220516154609 64 0 0.0 2.0 0.00 0.00 0.00 47 1017.8
20220516154014 70 0 0.0 0.0 0.00 0.00 0.00 34 1027.0
20220516154007 70 90 0.0 0.0 0.00 0.00 0.00 34 839.0
20220516153114 67 0 0.0 0.0 0.00 0.00 0.00 36 1027.0
20220516153104 63 360 0.0 2.0 0.00 0.00 0.00 46 1018.0
20220516153006 67 90 0.0 0.0 0.00 0.00 0.00 36 839.0
20220516152214 65 0 0.0 0.0 0.00 0.00 0.00 37 1027.0
20220516152006 65 90 0.0 0.0 0.00 0.00 0.00 37 839.0
20220516151612 62 0 0.0 1.0 0.00 0.00 0.00 50 1018.3
20220516151315 64 0 0.0 0.0 0.00 0.00 0.00 39 1027.0
20220516151007 64 90 0.0 0.0 0.00 0.00 0.00 36 839.0
20220516150415 64 0 0.0 0.0 0.00 0.00 0.00 36 1027.0
20220516150101 61 0 0.0 1.0 0.00 0.00 0.00 53 1018.3
20220516150007 63 90 0.0 0.0 0.00 0.00 0.00 37 839.0
20220516145514 62 0 0.0 0.0 0.00 0.00 0.00 37 1027.0
20220516145008 63 72 0.0 0.0 0.00 0.00 0.00 37 839.0
20220516144615 64 0 0.0 0.0 0.00 0.00 0.00 37 1027.0
20220516144601 61 0 0.0 2.0 0.00 0.00 0.00 53 1018.4
20220516144007 65 68 0.0 0.0 0.00 0.00 0.00 35 839.0
20220516143715 64 0 0.0 0.0 0.00 0.00 0.00 35 1027.0
20220516143103 61 0 0.0 2.0 0.00 0.00 0.00 50 1018.5
20220516143006 64 68 0.0 0.0 0.00 0.00 0.00 37 839.0
20220516142815 64 0 0.0 0.0 0.00 0.00 0.00 37 1027.0
20220516142007 64 68 0.0 0.0 0.00 0.00 0.00 41 839.0
20220516141915 64 0 0.0 0.0 0.00 0.00 0.00 41 1027.0
20220516141607 59 0 0.0 2.0 0.00 0.00 0.00 56 1018.6
20220516141014 63 0 0.0 0.0 0.00 0.00 0.00 41 1028.1
20220516141007 62 202 0.0 0.0 0.00 0.00 0.00 43 840.0
20220516140115 59 0 0.0 0.0 0.00 0.00 0.00 44 1028.1
20220516140109 57 0 0.0 1.0 0.00 0.00 0.00 59 1018.7
20220516140008 59 202 0.0 0.0 0.00 0.00 0.00 44 840.0
20220516135215 58 0 0.0 0.0 0.00 0.00 0.00 45 1028.1
20220516135007 58 202 0.0 0.0 0.00 0.00 0.00 45 840.0
20220516134555 56 0 0.0 0.0 0.00 0.00 0.00 62 1018.9
20220516134314 57 0 0.0 0.0 0.00 0.00 0.00 46 1028.1
20220516134008 57 202 0.0 0.0 0.00 0.00 0.00 46 840.0
20220516133415 57 0 0.0 0.0 0.00 0.00 0.00 47 1028.1
20220516133107 55 0 0.0 2.0 0.00 0.00 0.00 62 1018.9
20220516133007 57 202 0.0 0.0 0.00 0.00 0.00 47 840.0
20220516132515 57 0 0.0 0.0 0.00 0.00 0.00 47 1028.1
20220516132007 56 202 0.0 0.0 0.00 0.00 0.00 49 840.0
20220516131615 55 0 0.0 0.0 0.00 0.00 0.00 50 1028.1
20220516131547 51 0 0.0 1.0 0.00 0.00 0.00 67 1019.1
20220516131008 54 202 0.0 0.0 0.00 0.00 0.00 52 840.0
20220516130715 53 0 0.0 0.0 0.00 0.00 0.00 54 1028.1
20220516130053 48 0 0.0 1.0 0.00 0.00 0.00 78 1019.2
20220516130007 51 202 0.0 0.0 0.00 0.00 0.00 55 840.0
20220516125815 51 0 0.0 0.0 0.00 0.00 0.00 55 1028.1
20220516125006 49 202 0.0 0.0 0.00 0.00 0.00 55 840.0
20220516124915 49 0 0.0 0.0 0.00 0.00 0.00 55 1028.1
20220516124551 46 0 0.0 0.0 0.00 0.00 0.00 77 1019.0
20220516124014 48 0 0.0 0.0 0.00 0.00 0.00 55 1028.1
20220516124008 48 202 0.0 0.0 0.00 0.00 0.00 55 840.0
20220516123115 47 0 0.0 0.0 0.00 0.00 0.00 55 1028.1
20220516123102 45 0 0.0 0.0 0.00 0.00 0.00 77 1019.2
20220516123008 46 202 0.0 0.0 0.00 0.00 0.00 55 840.0
20220516122215 46 0 0.0 0.0 0.00 0.00 0.00 55 1028.1
20220516122007 46 202 0.0 0.0 0.00 0.00 0.00 55 840.0
20220516121549 45 0 0.0 0.0 0.00 0.00 0.00 75 1018.9
20220516121315 45 0 0.0 0.0 0.00 0.00 0.00 55 1029.3
20220516121007 45 202 0.0 0.0 0.00 0.00 0.00 55 841.0
20220516120415 44 0 0.0 0.0 0.00 0.00 0.00 55 1029.3
20220516120051 45 0 0.0 0.0 0.00 0.00 0.00 74 1018.9
20220516120007 44 202 0.0 0.0 0.00 0.00 0.00 55 840.0
20220516115514 44 0 0.0 0.0 0.00 0.00 0.00 55 1028.1
20220516115007 44 202 0.0 0.0 0.00 0.00 0.00 55 840.0
20220516114616 44 0 0.0 0.0 0.00 0.00 0.00 55 1028.1
20220516114552 45 0 0.0 1.0 0.00 0.00 0.00 74 1018.8
20220516114007 44 202 0.0 0.0 0.00 0.00 0.00 55 841.0
20220516113716 44 0 0.0 0.0 0.00 0.00 0.00 55 1029.3
20220516113052 46 0 0.0 0.0 0.00 0.00 0.00 73 1018.9
20220516113008 45 202 0.0 0.0 0.00 0.00 0.00 54 841.0
20220516112815 45 0 0.0 0.0 0.00 0.00 0.00 54 1029.3
20220516112007 45 202 0.0 0.0 0.00 0.00 0.00 54 841.0
20220516111915 45 0 0.0 0.0 0.00 0.00 0.00 54 1029.3
20220516111548 46 0 0.0 0.0 0.00 0.00 0.00 73 1018.9
20220516111014 45 0 0.0 0.0 0.00 0.00 0.00 53 1028.1
20220516111008 45 202 0.0 0.0 0.00 0.00 0.00 53 840.0
20220516110115 45 0 0.0 0.0 0.00 0.00 0.00 53 1028.1
20220516110101 46 0 0.0 1.0 0.00 0.00 0.00 72 1018.9
20220516110007 45 202 0.0 0.0 0.00 0.00 0.00 52 841.0
20220516105215 45 0 0.0 0.0 0.00 0.00 0.00 52 1029.3
20220516105007 45 202 0.0 0.0 0.00 0.00 0.00 52 841.0
20220516104600 46 0 0.0 1.0 0.00 0.00 0.00 71 1019.1
20220516104315 45 0 0.0 0.0 0.00 0.00 0.00 52 1029.3
20220516104008 45 202 0.0 0.0 0.00 0.00 0.00 52 841.0
20220516103415 45 0 0.0 0.0 0.00 0.00 0.00 51 1029.3
20220516103100 47 0 0.0 1.0 0.00 0.00 0.00 71 1019.0
20220516103007 46 202 0.0 0.0 0.00 0.00 0.00 51 841.0
20220516102515 46 0 0.0 0.0 0.00 0.00 0.00 51 1029.3
20220516102008 46 202 0.0 0.0 0.00 0.00 0.00 50 841.0
20220516101615 46 0 0.0 0.0 0.00 0.00 0.00 50 1029.3
20220516101553 47 0 0.0 0.0 0.00 0.00 0.00 70 1018.9
20220516101007 46 202 0.0 0.0 0.00 0.00 0.00 50 841.0
20220516100715 46 0 0.0 0.0 0.00 0.00 0.00 50 1029.3
20220516100102 47 0 0.0 1.0 0.00 0.00 0.00 70 1019.1
20220516100007 46 202 0.0 0.0 0.00 0.00 0.00 49 841.0
20220516095815 46 0 0.0 0.0 0.00 0.00 0.00 49 1029.3
20220516095007 46 202 0.0 0.0 0.00 0.00 0.00 48 841.0
20220516094917 46 0 0.0 0.0 0.00 0.00 0.00 48 1029.3
20220516094556 48 0 0.0 0.0 0.00 0.00 0.00 68 1019.1
20220516094014 47 0 0.0 0.0 0.00 0.00 0.00 47 1029.3
20220516094009 47 202 0.0 0.0 0.00 0.00 0.00 47 841.0
20220516093115 47 0 0.0 0.0 0.00 0.00 0.00 46 1029.3
20220516093058 49 0 0.0 0.0 0.00 0.00 0.00 67 1019.2
20220516093008 47 202 0.0 0.0 0.00 0.00 0.00 46 842.0
20220516092216 47 0 0.0 0.0 0.00 0.00 0.00 45 1030.5
20220516092008 47 202 0.0 0.0 0.00 0.00 0.00 44 842.0
20220516091614 49 0 0.0 0.0 0.00 0.00 0.00 65 1019.3
20220516091315 48 0 0.0 0.0 0.00 0.00 0.00 43 1030.5
20220516091008 48 202 0.0 0.0 0.00 0.00 0.00 43 842.0
20220516090416 48 0 0.0 0.0 0.00 0.00 0.00 42 1030.5
20220516090054 50 0 0.0 0.0 0.00 0.00 0.00 63 1019.4
20220516090008 48 202 0.0 0.0 0.00 0.00 0.00 41 840.0
20220516085515 48 0 0.0 0.0 0.00 0.00 0.00 41 1028.1
20220516085007 49 202 0.0 0.0 0.00 0.00 0.00 40 840.0
20220516084616 49 0 0.0 0.0 0.00 0.00 0.00 40 1028.1
20220516084603 51 0 0.0 1.0 0.00 0.00 0.00 62 1019.4
20220516084007 49 202 0.0 0.0 0.00 0.00 0.00 39 841.0
20220516083715 49 0 0.0 0.0 0.00 0.00 0.00 39 1029.3
20220516083106 51 0 0.0 0.0 0.00 0.00 0.00 60 1019.7
20220516083007 49 202 0.0 0.0 0.00 0.00 0.00 39 841.0
20220516082816 49 0 0.0 0.0 0.00 0.00 0.00 39 1029.3
20220516082008 50 202 0.0 0.0 0.00 0.00 0.00 39 841.0
20220516081915 50 0 0.0 0.0 0.00 0.00 0.00 39 1029.3
20220516081552 52 0 0.0 0.0 0.00 0.00 0.00 58 1019.8
20220516081015 50 0 0.0 0.0 0.00 0.00 0.00 38 1029.3
20220516081010 50 202 0.0 0.0 0.00 0.00 0.00 38 841.0
20220516080115 51 0 0.0 0.0 0.00 0.00 0.00 38 1029.3
20220516080051 52 0 0.0 0.0 0.00 0.00 0.00 59 1020.0
20220516080008 51 202 0.0 0.0 0.00 0.00 0.00 38 842.0
20220516075215 51 0 0.0 0.0 0.00 0.00 0.00 38 1030.5
20220516075007 51 202 0.0 0.0 0.00 0.00 0.00 38 842.0
20220516074657 52 0 0.0 0.0 0.00 0.00 0.00 58 1020.2
20220516074315 51 0 0.0 0.0 0.00 0.00 0.00 38 1030.5
20220516074007 51 202 0.0 0.0 0.00 0.00 0.00 38 842.0
20220516073415 51 0 0.0 0.0 0.00 0.00 0.00 38 1030.5
20220516073101 52 0 0.0 1.0 0.00 0.00 0.00 58 1020.3
20220516073008 51 202 0.0 0.0 0.00 0.00 0.00 38 842.0
20220516072515 51 0 0.0 0.0 0.00 0.00 0.00 38 1030.5
20220516072008 51 202 0.0 0.0 0.00 0.00 0.00 37 842.0
20220516071615 51 0 0.0 0.0 0.00 0.00 0.00 37 1030.5
20220516071602 53 0 0.0 1.0 0.00 0.00 0.00 59 1020.6
20220516071008 52 202 0.0 0.0 0.00 0.00 0.00 37 842.0
20220516070716 52 0 0.0 0.0 0.00 0.00 0.00 37 1030.5
20220516070106 53 0 0.0 1.0 0.00 0.00 0.00 58 1020.9
20220516070007 52 202 0.0 0.0 0.00 0.00 0.00 36 843.0
20220516065816 52 0 0.0 0.0 0.00 0.00 0.00 36 1031.7
20220516065007 52 202 0.0 0.0 0.00 0.00 0.00 36 843.0
20220516064916 52 0 0.0 0.0 0.00 0.00 0.00 36 1031.7
20220516064555 54 0 0.0 0.0 0.00 0.00 0.00 58 1021.0
20220516064015 53 0 0.0 0.0 0.00 0.00 0.00 36 1031.7
20220516064008 53 202 0.0 0.0 0.00 0.00 0.00 36 843.0
20220516063115 53 0 0.0 0.0 0.00 0.00 0.00 35 1031.7
20220516063057 55 0 0.0 0.0 0.00 0.00 0.00 56 1021.1
20220516063008 53 202 0.0 0.0 0.00 0.00 0.00 35 843.0
20220516062217 53 0 0.0 0.0 0.00 0.00 0.00 33 1031.7
20220516062008 53 202 0.0 0.0 0.00 0.00 0.00 33 843.0
20220516061557 55 0 0.0 0.0 0.00 0.00 0.00 54 1021.4
20220516061315 54 0 0.0 0.0 0.00 0.00 0.00 33 1031.7
20220516061008 54 202 0.0 0.0 0.00 0.00 0.00 31 843.0
20220516060416 54 0 0.0 0.0 0.00 0.00 0.00 31 1031.7
20220516060059 56 0 0.0 1.0 0.00 0.00 0.00 54 1021.4
20220516060007 54 202 0.0 0.0 0.00 0.00 0.00 30 843.0
20220516055515 55 0 0.0 0.0 0.00 0.00 0.00 29 1031.7
20220516055008 55 202 0.0 0.0 0.00 0.00 0.00 28 843.0
20220516054616 55 0 0.0 0.0 0.00 0.00 0.00 27 1031.7
20220516054558 57 0 0.0 0.0 0.00 0.00 0.00 50 1021.6
20220516054011 56 202 0.0 0.0 0.00 0.00 0.00 27 843.0
20220516053717 56 0 0.0 0.0 0.00 0.00 0.00 26 1031.7
20220516053103 58 0 0.0 2.0 0.00 0.00 0.00 49 1021.7
20220516053008 57 202 0.0 0.0 0.00 0.00 0.00 26 842.0
20220516052815 57 0 0.0 0.0 0.00 0.00 0.00 26 1030.5
20220516052008 57 202 0.0 0.0 0.00 0.00 0.00 25 842.0
20220516051916 57 0 0.0 0.0 0.00 0.00 0.00 25 1030.5
20220516051550 59 0 0.0 1.0 0.00 0.00 0.00 47 1021.9
20220516051015 58 0 0.0 0.0 0.00 0.00 0.00 22 1030.5
20220516051008 58 202 0.0 0.0 0.00 0.00 0.00 22 842.0
20220516050117 58 0 0.0 0.0 0.00 0.00 0.00 17 1030.5
20220516050106 60 0 0.0 1.0 0.00 0.00 0.00 47 1021.9
20220516050008 58 202 0.0 0.0 0.00 0.00 0.00 14 842.0
20220516045215 58 0 0.0 0.0 0.00 0.00 0.00 12 1030.5
20220516045009 58 202 0.0 0.0 0.00 0.00 0.00 9 842.0
20220516044556 60 360 0.0 1.0 0.00 0.00 0.00 46 1022.0
20220516044315 58 0 0.0 0.0 0.00 0.00 0.00 7 1031.7
20220516044009 58 202 0.0 0.0 0.00 0.00 0.00 6 843.0
20220516043415 58 0 0.0 0.0 0.00 0.00 0.00 6 1031.7
20220516043053 60 0 0.0 1.0 0.00 0.00 0.00 45 1022.0
20220516043008 59 202 0.0 0.0 0.00 0.00 0.00 6 843.0
20220516042515 59 0 0.0 0.0 0.00 0.00 0.00 6 1031.7
20220516042008 59 202 0.0 0.0 0.00 0.00 0.00 6 843.0
20220516041615 59 0 0.0 0.0 0.00 0.00 0.00 6 1031.7
20220516041555 61 0 0.0 1.0 0.00 0.00 0.00 44 1021.7
20220516041007 60 202 0.0 0.0 0.00 0.00 0.00 6 843.0
20220516040716 60 0 0.0 0.0 0.00 0.00 0.00 6 1031.7
20220516040114 62 0 0.0 1.0 0.00 0.00 0.00 43 1021.3
20220516040007 60 202 0.0 0.0 0.00 0.00 0.00 6 843.0
20220516035816 60 0 0.0 0.0 0.00 0.00 0.00 6 1031.7
20220516035008 61 202 0.0 0.0 0.00 0.00 0.00 5 843.0
20220516034915 61 0 0.0 0.0 0.00 0.00 0.00 5 1031.7
20220516034554 64 0 0.0 1.0 0.00 0.00 0.00 40 1021.1
20220516034015 62 0 0.0 0.0 0.00 0.00 0.00 5 1031.7
20220516034008 62 202 0.0 0.0 0.00 0.00 0.00 5 843.0
20220516033115 62 0 0.0 0.0 0.00 0.00 0.00 5 1031.7
20220516033058 64 0 0.0 1.0 0.00 0.00 0.00 39 1020.7
20220516033008 62 202 0.0 0.0 0.00 0.00 0.00 5 843.0
20220516032215 63 0 0.0 0.0 0.00 0.00 0.00 5 1031.7
20220516032009 63 225 0.0 0.0 0.00 0.00 0.00 5 843.0
20220516031552 66 360 0.0 1.0 0.00 0.00 0.00 37 1020.8
20220516031315 64 0 0.0 0.0 0.00 0.00 0.00 5 1030.5
20220516031009 64 225 0.0 0.0 0.00 0.00 0.00 5 842.0
20220516030415 64 0 0.0 0.0 0.00 0.00 0.00 5 1030.5
20220516030135 67 0 0.0 0.0 0.00 0.00 0.00 35 1020.6
20220516030008 65 225 0.0 0.0 0.00 0.00 0.00 4 842.0
20220516025518 65 0 0.0 0.0 0.00 0.00 0.00 4 1030.5
20220516025007 66 225 0.0 0.0 0.00 0.00 0.00 4 842.0
20220516024616 66 0 0.0 0.0 0.00 0.00 0.00 4 1030.5
20220516024557 68 0 0.0 2.0 0.00 0.00 0.00 35 1020.5
20220516024008 67 270 0.0 0.0 0.00 0.00 0.00 4 842.0
20220516023715 67 0 0.0 0.0 0.00 0.00 0.00 4 1030.5
20220516023101 69 360 0.0 2.0 0.00 0.00 0.00 32 1020.5
20220516023009 67 202 0.0 0.0 0.00 0.00 0.00 4 842.0
20220516022815 67 0 0.0 0.0 0.00 0.00 0.00 4 1030.5
20220516022010 68 180 0.0 0.0 0.00 0.00 0.00 4 842.0
20220516021916 68 0 0.0 0.0 0.00 0.00 0.00 4 1030.5
20220516021604 70 0 0.0 2.0 0.00 0.00 0.00 31 1020.6
20220516021015 69 0 0.0 0.0 0.00 0.00 0.00 4 1030.5
20220516021008 69 180 0.0 0.0 0.00 0.00 0.00 4 842.0
20220516020115 70 225 0.0 1.0 0.00 0.00 0.00 3 1030.5
20220516020052 71 0 0.0 3.0 0.00 0.00 0.00 30 1020.7
20220516020008 70 217 0.0 1.0 0.00 0.00 0.00 3 842.0
20220516015215 71 225 0.0 1.0 0.00 0.00 0.00 3 1030.5
20220516015009 71 225 0.0 0.0 0.00 0.00 0.00 3 842.0
20220516014550 71 360 0.0 4.0 0.00 0.00 0.00 30 1020.3
20220516014315 72 225 0.0 1.0 0.00 0.00 0.00 3 1030.5
20220516014009 72 202 0.0 3.0 0.00 0.00 0.00 3 842.0
20220516013416 72 234 0.0 3.0 0.00 0.00 0.00 3 1030.5
20220516013050 72 360 2.0 5.0 0.00 0.00 0.00 29 1020.2
20220516013008 72 236 0.0 1.0 0.00 0.00 0.00 3 842.0
20220516012516 72 279 0.0 1.0 0.00 0.00 0.00 3 1030.5
20220516012009 73 248 0.0 1.0 0.00 0.00 0.00 3 842.0
20220516011616 72 194 0.0 1.0 0.00 0.00 0.00 3 1030.5
20220516011606 72 360 0.0 5.0 0.00 0.00 0.00 29 1020.2
20220516011007 73 225 0.0 3.0 0.00 0.00 0.00 3 842.0
20220516010716 73 307 0.0 3.0 0.00 0.00 0.00 3 1030.5
20220516010058 72 0 0.0 3.0 0.00 0.00 0.00 29 1020.1
20220516010007 74 248 0.0 0.0 0.00 0.00 0.00 2 842.0
20220516005816 74 0 0.0 0.0 0.00 0.00 0.00 2 1030.5
20220516005010 74 225 0.0 1.0 0.00 0.00 0.00 2 842.0
20220516004917 74 270 0.0 3.0 0.00 0.00 0.00 2 1030.5
20220516004557 73 88 1.0 6.0 0.00 0.00 0.00 28 1020.0
20220516004015 76 238 1.0 4.0 0.00 0.00 0.00 2 1029.3
20220516004008 76 239 1.0 3.0 0.00 0.00 0.00 2 841.0
20220516003115 78 270 0.0 1.0 0.00 0.00 0.00 2 1029.3
20220516003056 74 103 2.0 6.0 0.00 0.00 0.00 27 1019.9
20220516003008 79 270 0.0 1.0 0.00 0.00 0.00 2 842.0
20220516002215 80 0 0.0 0.0 0.00 0.00 0.00 2 1030.5
20220516002009 80 176 0.0 1.0 0.00 0.00 0.00 2 842.0
20220516001552 75 70 1.0 8.0 0.00 0.00 0.00 27 1020.2
20220516001316 80 314 0.0 2.0 0.00 0.00 0.00 2 1030.5
20220516001008 80 239 0.0 5.0 0.00 0.00 0.00 2 842.0
20220516000416 80 253 0.0 5.0 0.00 0.00 0.00 2 1030.5
20220516000055 75 61 1.0 4.0 0.00 0.00 0.00 26 1020.0
20220516000008 80 265 0.0 5.0 0.00 0.00 0.00 2 842.0
20220515235516 80 221 0.0 3.0 0.00 0.00 0.00 2 1030.5
20220515235008 79 240 1.0 3.0 0.00 0.00 0.00 2 842.0
20220515234616 80 234 2.0 3.0 0.00 0.00 0.00 2 1030.5
20220515234556 76 89 1.0 4.0 0.00 0.00 0.00 26 1020.0
20220515234008 80 251 0.0 1.0 0.00 0.00 0.00 2 841.0
20220515233717 80 221 0.0 1.0 0.00 0.00 0.00 2 1029.3
20220515233055 76 145 2.0 7.0 0.00 0.00 0.00 27 1019.9
20220515233009 80 257 0.0 3.0 0.00 0.00 0.00 2 842.0
20220515232816 80 340 0.0 4.0 0.00 0.00 0.00 2 1030.5
20220515232010 80 248 0.0 1.0 0.00 0.00 0.00 2 842.0
20220515231916 80 214 0.0 1.0 0.00 0.00 0.00 2 1030.5
20220515231600 75 54 1.0 4.0 0.00 0.00 0.00 26 1020.0
20220515231015 82 225 0.0 1.0 0.00 0.00 0.00 2 1030.5
20220515231010 81 222 0.0 1.0 0.00 0.00 0.00 2 842.0
20220515230116 82 0 0.0 0.0 0.00 0.00 0.00 2 1030.5
20220515230059 76 104 1.0 6.0 0.00 0.00 0.00 26 1020.1
20220515230008 82 225 0.0 2.0 0.00 0.00 0.00 2 842.0